Time;durP1;ratioP1;P1;durP2;ratioP2;P2;SDS_P1;SDS_P2;PMS_P1;PMS_P2;Temp;Humidity;BMP_temperature;BMP_pressure;BME280_temperature;BME280_humidity;BME280_pressure;Samples;Min_cycle;Max_cycle;Signal;HPM_P1;HPM_P2
2021/01/16 00:00:24;;;;;;;7.33;5.20;;;;;;;;;;5029658;28;20421;-58
2021/01/16 00:02:50;;;;;;;7.47;5.13;;;;;;;;;;5029181;28;20805;-58
2021/01/16 00:05:18;;;;;;;6.80;5.17;;;;;;;;;;5028915;28;20797;-58
2021/01/16 00:07:44;;;;;;;7.03;5.00;;;;;;;;;;5029344;28;20783;-58
2021/01/16 00:10:12;;;;;;;8.33;6.00;;;;;;;;;;5029221;28;20509;-57
2021/01/16 00:12:38;;;;;;;7.97;5.10;;;;;;;;;;5028285;28;20432;-56
2021/01/16 00:15:05;;;;;;;8.33;5.53;;;;;;;;;;5029934;28;20416;-58
2021/01/16 00:17:31;;;;;;;7.93;5.97;;;;;;;;;;5017816;28;20447;-56
2021/01/16 00:19:56;;;;;;;7.27;5.57;;;;;;;;;;5029623;28;20421;-56
2021/01/16 00:22:22;;;;;;;9.60;5.80;;;;;;;;;;5029251;28;20456;-56
2021/01/16 00:24:48;;;;;;;7.90;5.37;;;;;;;;;;5011861;28;20192;-58
2021/01/16 00:27:15;;;;;;;7.17;5.13;;;;;;;;;;5010208;28;20201;-56
2021/01/16 00:29:40;;;;;;;7.27;5.00;;;;;;;;;;5028779;28;20451;-56
2021/01/16 00:32:06;;;;;;;6.67;5.47;;;;;;;;;;5010986;28;20449;-57
2021/01/16 00:34:32;;;;;;;6.40;4.67;;;;;;;;;;5028853;28;20188;-57
2021/01/16 00:36:58;;;;;;;7.63;5.37;;;;;;;;;;5029023;28;20185;-57
2021/01/16 00:39:24;;;;;;;7.73;5.90;;;;;;;;;;5029521;28;20401;-56
2021/01/16 00:41:50;;;;;;;8.13;5.93;;;;;;;;;;5029033;28;20439;-57
2021/01/16 00:44:16;;;;;;;7.60;5.33;;;;;;;;;;5029736;28;20166;-56
2021/01/16 00:46:42;;;;;;;7.77;5.80;;;;;;;;;;5030723;28;20178;-57
2021/01/16 00:49:08;;;;;;;6.17;5.00;;;;;;;;;;5032653;28;20299;-56
2021/01/16 00:51:34;;;;;;;7.70;5.20;;;;;;;;;;5033481;28;20174;-56
2021/01/16 00:54:00;;;;;;;6.33;5.43;;;;;;;;;;5023262;28;20546;-56
2021/01/16 00:56:27;;;;;;;7.63;5.83;;;;;;;;;;5015152;28;20428;-57
2021/01/16 00:58:53;;;;;;;11.23;5.93;;;;;;;;;;5032168;28;20186;-56
2021/01/16 01:01:19;;;;;;;9.30;6.10;;;;;;;;;;5032993;28;20954;-57
2021/01/16 01:03:45;;;;;;;8.23;5.00;;;;;;;;;;5024359;28;20234;-57
2021/01/16 01:06:11;;;;;;;7.93;5.63;;;;;;;;;;5015764;28;20170;-57
2021/01/16 01:08:37;;;;;;;8.47;6.30;;;;;;;;;;5031911;28;20432;-56
2021/01/16 01:11:03;;;;;;;9.63;6.30;;;;;;;;;;5014684;28;20189;-56
2021/01/16 01:13:29;;;;;;;6.27;5.17;;;;;;;;;;5014263;28;20447;-56
2021/01/16 01:15:55;;;;;;;8.50;5.67;;;;;;;;;;5032515;28;20424;-56
2021/01/16 01:18:21;;;;;;;8.20;5.30;;;;;;;;;;5014697;28;20280;-57
2021/01/16 01:20:47;;;;;;;7.33;5.33;;;;;;;;;;5014297;28;20235;-56
2021/01/16 01:23:13;;;;;;;8.50;5.70;;;;;;;;;;5032715;28;20939;-56
2021/01/16 01:25:39;;;;;;;7.30;6.10;;;;;;;;;;5029245;28;20216;-56
2021/01/16 01:28:05;;;;;;;9.10;6.60;;;;;;;;;;5023368;28;20182;-59
2021/01/16 01:30:31;;;;;;;7.47;6.07;;;;;;;;;;5032563;28;20424;-57
2021/01/16 01:32:58;;;;;;;8.10;5.80;;;;;;;;;;4996811;28;20436;-57
2021/01/16 01:35:24;;;;;;;7.57;5.77;;;;;;;;;;5031883;28;20440;-57
2021/01/16 01:37:52;;;;;;;10.07;6.03;;;;;;;;;;5014435;28;20434;-57
2021/01/16 01:40:19;;;;;;;7.67;5.20;;;;;;;;;;5031964;28;20465;-58
2021/01/16 01:42:50;;;;;;;7.17;5.73;;;;;;;;;;5013955;28;20462;-58
2021/01/16 01:45:16;;;;;;;7.87;6.27;;;;;;;;;;5031943;28;20428;-56
2021/01/16 01:47:43;;;;;;;7.13;6.00;;;;;;;;;;5032054;28;20915;-57
2021/01/16 01:50:10;;;;;;;9.93;6.00;;;;;;;;;;5031565;28;20413;-57
2021/01/16 01:52:37;;;;;;;8.00;6.10;;;;;;;;;;5032253;28;20421;-59
2021/01/16 01:55:08;;;;;;;7.57;5.73;;;;;;;;;;5031483;28;20484;-57
2021/01/16 01:57:37;;;;;;;7.53;5.50;;;;;;;;;;5030925;28;20434;-57
2021/01/16 02:00:07;;;;;;;8.60;5.80;;;;;;;;;;5031161;28;21192;-57
2021/01/16 02:02:35;;;;;;;6.93;5.20;;;;;;;;;;5031559;28;20456;-59
2021/01/16 02:05:02;;;;;;;8.50;6.13;;;;;;;;;;5030365;28;20506;-57
2021/01/16 02:07:36;;;;;;;7.37;5.43;;;;;;;;;;5031827;28;20416;-57
2021/01/16 02:10:05;;;;;;;10.27;6.13;;;;;;;;;;5030990;28;20487;-56
2021/01/16 02:12:32;;;;;;;7.87;5.70;;;;;;;;;;5031646;28;20423;-57
2021/01/16 02:15:15;;;;;;;8.20;5.23;;;;;;;;;;5031336;28;20958;-57
2021/01/16 02:17:42;;;;;;;6.20;5.27;;;;;;;;;;5031915;28;20906;-57
2021/01/16 02:20:08;;;;;;;7.13;5.67;;;;;;;;;;5030475;28;20515;-57
2021/01/16 02:22:52;;;;;;;7.90;6.00;;;;;;;;;;5013742;28;20452;-58
2021/01/16 02:25:18;;;;;;;8.77;5.23;;;;;;;;;;5028445;28;20444;-57
2021/01/16 02:27:53;;;;;;;11.03;6.20;;;;;;;;;;5030566;28;20575;-57
2021/01/16 02:30:20;;;;;;;6.90;5.50;;;;;;;;;;5010209;28;20903;-57
2021/01/16 02:32:46;;;;;;;6.80;5.17;;;;;;;;;;5012790;28;20424;-57
2021/01/16 02:35:13;;;;;;;6.77;5.67;;;;;;;;;;5030673;28;20823;-57
2021/01/16 02:37:52;;;;;;;6.97;5.53;;;;;;;;;;5031465;28;20758;-57
2021/01/16 02:40:33;;;;;;;6.63;5.03;;;;;;;;;;5031551;28;20466;-57
2021/01/16 02:42:59;;;;;;;6.93;5.40;;;;;;;;;;5030731;28;20492;-57
2021/01/16 02:45:29;;;;;;;7.87;4.90;;;;;;;;;;5030774;28;20426;-59
2021/01/16 02:47:58;;;;;;;7.70;6.10;;;;;;;;;;5013266;28;20186;-57
2021/01/16 02:50:24;;;;;;;7.30;5.33;;;;;;;;;;5030181;28;20424;-57
2021/01/16 02:52:51;;;;;;;7.23;5.47;;;;;;;;;;5030369;28;20452;-59
2021/01/16 02:55:17;;;;;;;7.67;5.53;;;;;;;;;;5012035;28;20903;-57
2021/01/16 02:57:43;;;;;;;7.73;5.87;;;;;;;;;;5029384;28;20455;-56
2021/01/16 03:00:12;;;;;;;7.47;5.90;;;;;;;;;;5030488;28;20417;-57
2021/01/16 03:02:38;;;;;;;7.33;6.10;;;;;;;;;;5011489;28;20533;-57
2021/01/16 03:05:05;;;;;;;6.43;4.90;;;;;;;;;;5027879;28;20421;-56
2021/01/16 03:07:32;;;;;;;6.57;5.07;;;;;;;;;;5012322;28;20868;-57
2021/01/16 03:10:01;;;;;;;8.27;5.73;;;;;;;;;;5030073;28;20933;-57
2021/01/16 03:12:28;;;;;;;8.03;5.97;;;;;;;;;;5034569;28;20428;-57
2021/01/16 03:14:55;;;;;;;7.07;5.50;;;;;;;;;;5036305;28;20430;-57
2021/01/16 03:17:25;;;;;;;7.00;5.70;;;;;;;;;;5012382;28;20443;-57
2021/01/16 03:19:51;;;;;;;8.63;5.40;;;;;;;;;;5030383;28;20417;-58
2021/01/16 03:22:18;;;;;;;8.60;5.40;;;;;;;;;;5029616;28;20460;-57
2021/01/16 03:24:45;;;;;;;6.63;5.90;;;;;;;;;;5012714;28;20425;-57
2021/01/16 03:27:11;;;;;;;8.57;5.93;;;;;;;;;;5011455;28;20420;-59
2021/01/16 03:29:38;;;;;;;9.03;6.33;;;;;;;;;;5012374;28;20428;-57
2021/01/16 03:32:04;;;;;;;7.13;5.33;;;;;;;;;;5029824;28;20416;-57
2021/01/16 03:34:30;;;;;;;6.93;5.80;;;;;;;;;;5030031;28;20515;-57
2021/01/16 03:36:56;;;;;;;8.00;6.10;;;;;;;;;;5028601;28;20571;-57
2021/01/16 03:39:22;;;;;;;7.93;6.17;;;;;;;;;;5012049;28;20975;-57
2021/01/16 03:41:48;;;;;;;8.10;6.03;;;;;;;;;;5029409;28;20268;-58
2021/01/16 03:44:14;;;;;;;7.07;5.83;;;;;;;;;;5029278;28;20529;-57
2021/01/16 03:46:40;;;;;;;8.03;6.00;;;;;;;;;;5029892;28;20425;-57
2021/01/16 03:49:06;;;;;;;7.67;6.00;;;;;;;;;;5029508;28;20906;-58
2021/01/16 03:51:33;;;;;;;7.73;6.07;;;;;;;;;;5029414;28;20439;-57
2021/01/16 03:53:59;;;;;;;8.30;6.27;;;;;;;;;;5009293;28;20902;-57
2021/01/16 03:56:25;;;;;;;6.77;5.60;;;;;;;;;;5029433;28;20421;-57
2021/01/16 03:58:51;;;;;;;7.33;5.20;;;;;;;;;;5029238;28;20417;-55
2021/01/16 04:01:17;;;;;;;7.80;5.90;;;;;;;;;;5026369;28;20416;-56
2021/01/16 04:03:43;;;;;;;8.83;6.50;;;;;;;;;;5028758;28;20492;-56
2021/01/16 04:06:15;;;;;;;7.63;6.20;;;;;;;;;;5029410;28;20453;-56
2021/01/16 04:08:41;;;;;;;8.20;6.23;;;;;;;;;;5011164;28;20478;-56
2021/01/16 04:11:07;;;;;;;9.80;6.43;;;;;;;;;;5011895;28;20445;-56
2021/01/16 04:13:33;;;;;;;8.13;6.50;;;;;;;;;;5011418;28;20433;-56
2021/01/16 04:15:59;;;;;;;9.40;6.33;;;;;;;;;;5011830;28;20436;-57
2021/01/16 04:18:25;;;;;;;7.33;5.73;;;;;;;;;;5029551;28;20645;-56
2021/01/16 04:20:51;;;;;;;9.27;6.50;;;;;;;;;;5028468;28;20463;-59
2021/01/16 04:23:17;;;;;;;8.90;6.83;;;;;;;;;;5028679;28;20950;-57
2021/01/16 04:25:43;;;;;;;10.50;6.87;;;;;;;;;;5029613;28;20443;-56
2021/01/16 04:28:09;;;;;;;8.43;6.37;;;;;;;;;;5029040;28;20499;-56
2021/01/16 04:30:35;;;;;;;8.47;6.20;;;;;;;;;;5025271;28;20962;-57
2021/01/16 04:33:01;;;;;;;8.13;6.23;;;;;;;;;;5024901;28;20428;-59
2021/01/16 04:35:28;;;;;;;8.73;6.57;;;;;;;;;;5028889;28;20434;-57
2021/01/16 04:37:54;;;;;;;7.50;6.43;;;;;;;;;;5011124;28;20491;-56
2021/01/16 04:40:20;;;;;;;8.53;6.43;;;;;;;;;;5029221;28;20428;-56
2021/01/16 04:42:46;;;;;;;9.23;6.97;;;;;;;;;;5011254;28;20644;-58
2021/01/16 04:45:16;;;;;;;10.17;6.37;;;;;;;;;;5029363;28;20429;-60
2021/01/16 04:47:46;;;;;;;9.90;6.90;;;;;;;;;;5028414;28;20424;-56
2021/01/16 04:50:13;;;;;;;7.93;6.00;;;;;;;;;;5027187;28;20443;-57
2021/01/16 04:52:39;;;;;;;9.50;6.77;;;;;;;;;;5027894;28;20432;-57
2021/01/16 04:55:08;;;;;;;14.00;7.17;;;;;;;;;;5028181;28;20417;-56
2021/01/16 04:57:34;;;;;;;8.80;6.40;;;;;;;;;;5027972;28;20452;-56
2021/01/16 05:00:00;;;;;;;8.20;6.00;;;;;;;;;;5027925;28;20429;-56
2021/01/16 05:02:31;;;;;;;7.77;6.37;;;;;;;;;;5010524;28;20452;-57
2021/01/16 05:04:59;;;;;;;8.60;7.20;;;;;;;;;;5027233;28;20911;-58
2021/01/16 05:07:26;;;;;;;8.60;6.27;;;;;;;;;;5028069;28;20416;-56
2021/01/16 05:09:52;;;;;;;9.63;6.00;;;;;;;;;;5027266;28;20468;-59
2021/01/16 05:12:28;;;;;;;9.87;6.50;;;;;;;;;;5009767;28;20417;-57
2021/01/16 05:15:03;;;;;;;8.57;6.57;;;;;;;;;;5028010;28;20439;-56
2021/01/16 05:17:30;;;;;;;9.57;6.90;;;;;;;;;;5027851;28;20937;-57
2021/01/16 05:19:56;;;;;;;8.77;6.43;;;;;;;;;;5026862;28;20432;-57
2021/01/16 05:22:23;;;;;;;9.10;6.40;;;;;;;;;;5021281;28;20560;-57
2021/01/16 05:24:49;;;;;;;10.83;7.00;;;;;;;;;;5021837;28;20447;-57
2021/01/16 05:27:20;;;;;;;7.87;6.37;;;;;;;;;;5026945;28;20821;-56
2021/01/16 05:29:46;;;;;;;7.67;5.90;;;;;;;;;;5009772;28;20512;-57
2021/01/16 05:32:13;;;;;;;8.67;6.63;;;;;;;;;;5010274;28;20448;-57
2021/01/16 05:34:40;;;;;;;9.33;7.07;;;;;;;;;;5030591;28;20423;-57
2021/01/16 05:37:06;;;;;;;7.90;5.90;;;;;;;;;;5031207;28;20421;-57
2021/01/16 05:39:33;;;;;;;8.53;6.27;;;;;;;;;;5031330;28;20436;-57
2021/01/16 05:42:03;;;;;;;7.47;5.70;;;;;;;;;;5029046;28;20562;-57
2021/01/16 05:44:30;;;;;;;7.37;6.20;;;;;;;;;;5031490;28;20889;-57
2021/01/16 05:46:56;;;;;;;7.87;6.13;;;;;;;;;;5031246;28;20559;-58
2021/01/16 05:49:23;;;;;;;8.23;6.63;;;;;;;;;;5031506;28;20851;-59
2021/01/16 05:51:49;;;;;;;8.20;5.73;;;;;;;;;;5030858;28;20463;-57
2021/01/16 05:54:16;;;;;;;7.90;5.93;;;;;;;;;;4995048;28;20536;-57
2021/01/16 05:56:43;;;;;;;8.70;7.07;;;;;;;;;;5011945;28;20424;-57
2021/01/16 05:59:10;;;;;;;8.90;6.40;;;;;;;;;;5020608;28;20412;-57
2021/01/16 06:01:37;;;;;;;9.13;6.40;;;;;;;;;;5012701;28;20435;-57
2021/01/16 06:04:04;;;;;;;9.63;6.13;;;;;;;;;;5030249;28;20814;-57
2021/01/16 06:06:34;;;;;;;8.70;6.93;;;;;;;;;;5012817;28;20435;-57
2021/01/16 06:09:00;;;;;;;9.47;6.10;;;;;;;;;;5020143;28;20543;-57
2021/01/16 06:11:26;;;;;;;8.43;6.47;;;;;;;;;;5030470;28;20474;-57
2021/01/16 06:13:55;;;;;;;7.27;6.23;;;;;;;;;;5023829;28;20525;-57
2021/01/16 06:16:22;;;;;;;8.63;6.87;;;;;;;;;;5031348;28;20471;-57
2021/01/16 06:18:49;;;;;;;13.57;6.97;;;;;;;;;;5012744;28;20750;-57
2021/01/16 06:21:25;;;;;;;9.37;6.00;;;;;;;;;;5030826;28;20417;-57
2021/01/16 06:23:56;;;;;;;8.80;6.83;;;;;;;;;;5029672;28;20607;-57
2021/01/16 06:26:22;;;;;;;9.87;6.70;;;;;;;;;;5030566;28;20417;-57
2021/01/16 06:28:59;;;;;;;8.93;6.13;;;;;;;;;;5011101;28;20756;-57
2021/01/16 06:31:26;;;;;;;8.97;6.80;;;;;;;;;;5030108;28;20887;-57
2021/01/16 06:34:18;;;;;;;8.73;7.00;;;;;;;;;;5030254;28;20507;-58
2021/01/16 06:36:50;;;;;;;7.27;5.53;;;;;;;;;;4992397;28;20870;-57
2021/01/16 06:39:18;;;;;;;9.00;6.03;;;;;;;;;;5030126;28;20442;-57
2021/01/16 06:41:53;;;;;;;8.03;5.87;;;;;;;;;;5030011;28;20524;-57
2021/01/16 06:44:19;;;;;;;9.30;6.73;;;;;;;;;;5028910;28;20459;-57
2021/01/16 06:46:45;;;;;;;9.30;6.77;;;;;;;;;;5029424;28;20500;-57
2021/01/16 06:49:21;;;;;;;10.23;6.87;;;;;;;;;;5024509;28;20507;-57
2021/01/16 06:51:49;;;;;;;12.57;7.47;;;;;;;;;;5027508;28;20412;-59
2021/01/16 06:54:21;;;;;;;11.87;7.33;;;;;;;;;;5010463;28;20432;-57
2021/01/16 06:56:49;;;;;;;8.80;6.80;;;;;;;;;;5028341;28;20417;-59
2021/01/16 06:59:21;;;;;;;9.80;6.90;;;;;;;;;;5027894;28;20687;-57
2021/01/16 07:01:49;;;;;;;11.70;6.97;;;;;;;;;;5028161;28;20452;-58
2021/01/16 07:04:16;;;;;;;9.63;6.80;;;;;;;;;;5027076;28;20462;-57
2021/01/16 07:06:46;;;;;;;8.57;6.93;;;;;;;;;;5011517;28;20459;-57
2021/01/16 07:09:17;;;;;;;11.60;7.23;;;;;;;;;;5029783;28;20499;-57
2021/01/16 07:11:44;;;;;;;10.57;6.77;;;;;;;;;;5029332;28;20427;-57
2021/01/16 07:14:11;;;;;;;11.20;7.93;;;;;;;;;;5029286;28;20424;-57
2021/01/16 07:16:37;;;;;;;11.17;7.60;;;;;;;;;;5030147;28;20416;-57
2021/01/16 07:19:03;;;;;;;9.30;6.90;;;;;;;;;;5029537;28;20436;-56
2021/01/16 07:21:29;;;;;;;10.97;7.97;;;;;;;;;;5010934;28;20448;-57
2021/01/16 07:23:55;;;;;;;9.70;7.43;;;;;;;;;;5029628;28;20452;-56
2021/01/16 07:26:22;;;;;;;12.30;8.50;;;;;;;;;;5029521;28;20200;-56
2021/01/16 07:28:50;;;;;;;11.53;8.77;;;;;;;;;;5010474;28;20474;-56
2021/01/16 07:31:16;;;;;;;10.57;8.13;;;;;;;;;;5025218;28;20527;-57
2021/01/16 07:33:44;;;;;;;12.23;7.97;;;;;;;;;;5010144;28;20486;-56
2021/01/16 07:36:12;;;;;;;11.07;8.20;;;;;;;;;;5029451;28;20510;-57
2021/01/16 07:38:39;;;;;;;9.83;7.97;;;;;;;;;;5029165;28;20439;-57
2021/01/16 07:41:09;;;;;;;12.17;9.07;;;;;;;;;;5018641;28;20903;-57
2021/01/16 07:44:03;;;;;;;11.30;8.43;;;;;;;;;;5028973;28;20551;-57
2021/01/16 07:46:30;;;;;;;12.60;9.20;;;;;;;;;;5029917;28;20864;-57
2021/01/16 07:48:57;;;;;;;13.70;9.30;;;;;;;;;;5010854;28;20495;-58
2021/01/16 07:51:26;;;;;;;10.67;8.57;;;;;;;;;;5011376;28;20494;-58
2021/01/16 07:53:55;;;;;;;11.20;8.50;;;;;;;;;;5010084;28;20478;-58
2021/01/16 07:56:23;;;;;;;11.83;9.30;;;;;;;;;;5028620;28;20428;-57
2021/01/16 07:59:07;;;;;;;12.33;9.70;;;;;;;;;;5029053;28;20923;-58
2021/01/16 08:01:52;;;;;;;12.73;8.60;;;;;;;;;;5027124;28;20946;-57
2021/01/16 08:04:33;;;;;;;12.70;9.07;;;;;;;;;;5027117;28;20456;-58
2021/01/16 08:07:05;;;;;;;12.53;9.27;;;;;;;;;;5027776;28;20538;-58
2021/01/16 08:09:37;;;;;;;12.07;9.20;;;;;;;;;;5009624;28;20468;-57
2021/01/16 08:12:03;;;;;;;11.80;8.60;;;;;;;;;;5028665;28;20811;-58
2021/01/16 08:14:33;;;;;;;12.23;9.23;;;;;;;;;;5011255;28;20420;-59
2021/01/16 08:17:00;;;;;;;12.63;9.43;;;;;;;;;;5020313;28;20827;-59
2021/01/16 08:19:39;;;;;;;12.90;9.30;;;;;;;;;;5026673;28;20987;-57
2021/01/16 08:22:14;;;;;;;11.03;8.50;;;;;;;;;;5026495;28;20482;-59
2021/01/16 08:24:55;;;;;;;12.87;9.67;;;;;;;;;;5026460;28;20424;-58
2021/01/16 08:27:23;;;;;;;12.20;8.57;;;;;;;;;;5028869;28;20420;-58
2021/01/16 08:29:50;;;;;;;13.37;9.80;;;;;;;;;;5022871;28;20432;-58
2021/01/16 08:32:16;;;;;;;13.13;9.20;;;;;;;;;;5024851;28;20416;-58
2021/01/16 08:34:51;;;;;;;14.07;9.03;;;;;;;;;;5007802;28;20412;-57
2021/01/16 08:37:47;;;;;;;13.20;9.50;;;;;;;;;;5023251;28;20422;-58
2021/01/16 08:40:13;;;;;;;13.73;8.57;;;;;;;;;;5004878;28;20486;-58
2021/01/16 08:42:53;;;;;;;10.53;8.40;;;;;;;;;;5018335;28;20990;-59
2021/01/16 08:45:20;;;;;;;11.30;8.50;;;;;;;;;;5004586;28;20539;-59
2021/01/16 08:47:50;;;;;;;14.07;10.00;;;;;;;;;;5028924;28;20788;-58
2021/01/16 08:50:16;;;;;;;13.40;8.50;;;;;;;;;;5027882;28;20425;-58
2021/01/16 08:52:42;;;;;;;12.90;9.13;;;;;;;;;;5020989;28;20426;-58
2021/01/16 08:55:08;;;;;;;12.77;9.10;;;;;;;;;;5010558;28;20440;-59
2021/01/16 08:57:35;;;;;;;12.53;8.80;;;;;;;;;;5018068;28;20432;-57
2021/01/16 09:00:15;;;;;;;12.33;9.20;;;;;;;;;;5006320;28;20421;-59
2021/01/16 09:02:42;;;;;;;12.63;9.43;;;;;;;;;;5000257;28;20461;-56
2021/01/16 09:05:23;;;;;;;14.87;10.10;;;;;;;;;;5017282;28;20468;-58
2021/01/16 09:07:50;;;;;;;13.77;9.90;;;;;;;;;;5026513;28;20441;-57
2021/01/16 09:10:23;;;;;;;13.67;9.43;;;;;;;;;;5024060;28;20465;-57
2021/01/16 09:12:53;;;;;;;12.33;9.13;;;;;;;;;;5029695;28;20897;-57
2021/01/16 09:15:21;;;;;;;14.33;10.23;;;;;;;;;;5032232;28;20423;-57
2021/01/16 09:18:05;;;;;;;12.40;9.57;;;;;;;;;;5023783;28;20431;-57
2021/01/16 09:20:32;;;;;;;11.13;8.90;;;;;;;;;;5025729;28;20416;-57
2021/01/16 09:22:58;;;;;;;12.67;10.27;;;;;;;;;;5026609;28;20590;-57
2021/01/16 09:25:25;;;;;;;12.70;9.07;;;;;;;;;;5026611;28;20417;-57
2021/01/16 09:27:52;;;;;;;14.33;9.63;;;;;;;;;;5025600;28;20474;-57
2021/01/16 09:30:28;;;;;;;11.00;8.83;;;;;;;;;;5032123;28;21042;-58
2021/01/16 09:32:54;;;;;;;11.70;9.07;;;;;;;;;;5019677;28;20409;-57
2021/01/16 09:35:36;;;;;;;13.13;9.93;;;;;;;;;;5013670;28;20475;-59
2021/01/16 09:38:03;;;;;;;15.10;9.80;;;;;;;;;;5020307;28;20761;-57
2021/01/16 09:40:38;;;;;;;13.10;9.30;;;;;;;;;;5013047;28;20692;-57
2021/01/16 09:43:17;;;;;;;12.17;8.93;;;;;;;;;;5023562;28;20468;-57
2021/01/16 09:45:49;;;;;;;12.50;8.80;;;;;;;;;;5003773;28;20424;-57
2021/01/16 09:48:42;;;;;;;11.30;8.90;;;;;;;;;;5021531;28;20460;-64
2021/01/16 09:51:12;;;;;;;13.37;9.00;;;;;;;;;;5031750;28;20452;-58
2021/01/16 09:53:39;;;;;;;10.97;8.70;;;;;;;;;;5031524;28;20436;-57
2021/01/16 09:56:06;;;;;;;12.73;9.30;;;;;;;;;;5031844;28;20425;-57
2021/01/16 09:58:35;;;;;;;15.03;9.07;;;;;;;;;;5011902;28;20523;-57
2021/01/16 10:01:18;;;;;;;11.57;8.47;;;;;;;;;;5027206;28;20819;-57
2021/01/16 10:03:44;;;;;;;11.27;8.27;;;;;;;;;;5013004;28;20586;-57
2021/01/16 10:06:18;;;;;;;12.07;9.23;;;;;;;;;;5010425;28;20471;-59
2021/01/16 10:08:44;;;;;;;11.57;9.10;;;;;;;;;;5009122;28;20464;-57
2021/01/16 10:11:12;;;;;;;14.87;9.43;;;;;;;;;;5031201;28;20463;-58
2021/01/16 10:13:39;;;;;;;12.00;8.87;;;;;;;;;;5028164;28;20455;-59
2021/01/16 10:16:06;;;;;;;11.50;8.90;;;;;;;;;;5020384;28;20463;-58
2021/01/16 10:18:33;;;;;;;10.73;8.60;;;;;;;;;;5026006;28;20416;-57
2021/01/16 10:21:00;;;;;;;13.10;9.47;;;;;;;;;;5031230;28;20427;-57
2021/01/16 10:23:30;;;;;;;11.80;8.83;;;;;;;;;;5020254;28;20633;-57
2021/01/16 10:26:22;;;;;;;12.10;8.90;;;;;;;;;;5030268;28;20440;-59
2021/01/16 10:28:54;;;;;;;12.63;8.17;;;;;;;;;;5017121;28;20432;-57
2021/01/16 10:31:24;;;;;;;13.80;8.70;;;;;;;;;;5018269;28;20524;-57
2021/01/16 10:33:50;;;;;;;12.63;8.83;;;;;;;;;;4998830;28;21033;-58
2021/01/16 10:36:17;;;;;;;12.83;9.20;;;;;;;;;;5030752;28;20433;-58
2021/01/16 10:38:45;;;;;;;10.73;8.07;;;;;;;;;;5020442;28;20511;-58
2021/01/16 10:41:12;;;;;;;12.63;8.70;;;;;;;;;;5029840;28;20428;-57
2021/01/16 10:43:39;;;;;;;10.30;7.63;;;;;;;;;;5012434;28;20476;-58
2021/01/16 10:46:21;;;;;;;10.37;7.97;;;;;;;;;;5030733;28;20421;-57
2021/01/16 10:48:48;;;;;;;12.57;9.27;;;;;;;;;;5017332;28;20765;-57
2021/01/16 10:51:14;;;;;;;10.87;8.30;;;;;;;;;;5029735;28;20499;-57
2021/01/16 10:53:41;;;;;;;11.23;8.27;;;;;;;;;;5010394;28;20436;-57
2021/01/16 10:56:08;;;;;;;12.10;8.77;;;;;;;;;;5027667;28;20421;-57
2021/01/16 10:58:34;;;;;;;12.33;7.90;;;;;;;;;;5028072;28;20425;-57
2021/01/16 11:01:01;;;;;;;12.47;8.50;;;;;;;;;;5012492;28;20503;-57
2021/01/16 11:03:28;;;;;;;12.33;8.13;;;;;;;;;;5030056;28;20460;-57
2021/01/16 11:05:55;;;;;;;10.53;7.67;;;;;;;;;;5030018;28;20714;-57
2021/01/16 11:08:26;;;;;;;9.97;8.13;;;;;;;;;;5027568;28;20447;-56
2021/01/16 11:10:53;;;;;;;8.60;7.00;;;;;;;;;;5017382;28;20469;-56
2021/01/16 11:13:24;;;;;;;12.50;8.50;;;;;;;;;;5018096;28;20473;-59
2021/01/16 11:15:54;;;;;;;10.43;7.80;;;;;;;;;;5022284;28;20931;-56
2021/01/16 11:18:28;;;;;;;10.57;7.73;;;;;;;;;;5020470;28;20429;-58
2021/01/16 11:20:58;;;;;;;11.33;8.00;;;;;;;;;;5019849;28;20428;-58
2021/01/16 11:23:30;;;;;;;12.10;7.70;;;;;;;;;;5019017;28;20879;-57
2021/01/16 11:25:56;;;;;;;12.43;7.57;;;;;;;;;;5022676;28;20414;-57
2021/01/16 11:28:28;;;;;;;13.30;8.70;;;;;;;;;;5027659;28;20498;-57
2021/01/16 11:31:04;;;;;;;11.37;7.80;;;;;;;;;;5026648;28;20424;-58
2021/01/16 11:33:30;;;;;;;11.53;7.90;;;;;;;;;;5000479;28;20433;-58
2021/01/16 11:36:07;;;;;;;11.40;8.07;;;;;;;;;;5025691;28;20425;-57
2021/01/16 11:38:37;;;;;;;16.77;8.77;;;;;;;;;;5024577;28;20776;-59
2021/01/16 11:41:03;;;;;;;13.67;7.70;;;;;;;;;;5029342;28;20470;-57
2021/01/16 11:43:29;;;;;;;14.80;7.67;;;;;;;;;;5028920;28;20650;-58
2021/01/16 11:46:06;;;;;;;10.80;7.33;;;;;;;;;;5030465;28;20416;-58
2021/01/16 11:48:33;;;;;;;12.47;8.33;;;;;;;;;;5029963;28;20879;-59
2021/01/16 11:51:06;;;;;;;11.00;8.17;;;;;;;;;;5002531;28;20428;-59
2021/01/16 11:53:32;;;;;;;9.83;7.77;;;;;;;;;;5028874;28;20452;-58
2021/01/16 11:56:06;;;;;;;15.53;8.93;;;;;;;;;;5027471;28;20437;-60
2021/01/16 11:58:35;;;;;;;12.13;8.57;;;;;;;;;;5009430;28;20826;-58
2021/01/16 12:01:01;;;;;;;10.43;8.20;;;;;;;;;;5027406;28;20427;-57
2021/01/16 12:03:27;;;;;;;10.53;7.87;;;;;;;;;;5028102;28;20968;-59
2021/01/16 12:05:54;;;;;;;10.43;7.30;;;;;;;;;;5011464;28;20864;-59
2021/01/16 12:08:22;;;;;;;10.93;8.10;;;;;;;;;;5028334;28;20570;-57
2021/01/16 12:10:49;;;;;;;10.60;8.20;;;;;;;;;;5028250;28;20463;-58
2021/01/16 12:13:15;;;;;;;10.23;8.13;;;;;;;;;;5027150;28;20428;-57
2021/01/16 12:15:41;;;;;;;13.90;8.63;;;;;;;;;;5024904;28;20502;-57
2021/01/16 12:18:07;;;;;;;12.00;8.17;;;;;;;;;;5011567;28;20879;-59
2021/01/16 12:20:34;;;;;;;11.13;7.10;;;;;;;;;;5007029;28;20514;-57
2021/01/16 12:23:01;;;;;;;10.37;7.67;;;;;;;;;;5009753;28;20551;-58
2021/01/16 12:25:45;;;;;;;14.10;8.20;;;;;;;;;;5029583;28;20440;-58
2021/01/16 12:28:12;;;;;;;10.77;7.00;;;;;;;;;;5018983;28;20408;-57
2021/01/16 12:30:39;;;;;;;12.47;7.67;;;;;;;;;;5007434;28;20451;-57
2021/01/16 12:33:05;;;;;;;11.80;9.10;;;;;;;;;;5008249;28;20413;-57
2021/01/16 12:35:31;;;;;;;10.67;8.10;;;;;;;;;;5003733;28;20431;-57
2021/01/16 12:37:58;;;;;;;14.03;9.03;;;;;;;;;;4999378;28;20459;-57
2021/01/16 12:40:25;;;;;;;14.47;8.17;;;;;;;;;;5014900;28;20886;-60
2021/01/16 12:42:51;;;;;;;11.10;8.30;;;;;;;;;;5010250;28;21004;-57
2021/01/16 12:45:19;;;;;;;11.00;7.90;;;;;;;;;;5007133;28;20919;-57
2021/01/16 12:47:47;;;;;;;9.70;8.07;;;;;;;;;;5032334;28;20923;-57
2021/01/16 12:50:13;;;;;;;12.70;7.87;;;;;;;;;;5031152;28;20431;-56
2021/01/16 12:52:45;;;;;;;12.53;8.73;;;;;;;;;;5017404;28;20744;-57
2021/01/16 12:55:11;;;;;;;13.60;8.67;;;;;;;;;;4998095;28;20516;-58
2021/01/16 12:57:39;;;;;;;13.53;8.73;;;;;;;;;;5020399;28;20447;-57
2021/01/16 13:00:06;;;;;;;15.17;9.23;;;;;;;;;;5025228;28;20916;-57
2021/01/16 13:02:32;;;;;;;13.63;8.90;;;;;;;;;;5022210;28;20449;-57
2021/01/16 13:05:01;;;;;;;14.57;8.73;;;;;;;;;;5024571;28;20459;-57
2021/01/16 13:07:28;;;;;;;13.97;8.30;;;;;;;;;;5017092;28;20429;-57
2021/01/16 13:09:54;;;;;;;11.47;7.93;;;;;;;;;;5027094;28;20968;-58
2021/01/16 13:12:21;;;;;;;11.83;7.80;;;;;;;;;;5012513;28;20435;-57
2021/01/16 13:14:48;;;;;;;12.47;8.20;;;;;;;;;;5001439;28;20418;-57
2021/01/16 13:17:17;;;;;;;11.47;8.07;;;;;;;;;;5026995;28;20493;-56
2021/01/16 13:19:45;;;;;;;13.23;8.53;;;;;;;;;;5034100;28;20855;-57
2021/01/16 13:22:23;;;;;;;14.23;8.87;;;;;;;;;;5027127;28;20424;-57
2021/01/16 13:25:20;;;;;;;12.80;8.33;;;;;;;;;;5024036;28;20417;-56
2021/01/16 13:27:46;;;;;;;11.67;7.70;;;;;;;;;;5019762;28;20879;-56
2021/01/16 13:30:20;;;;;;;11.17;7.80;;;;;;;;;;5010687;28;20408;-56
2021/01/16 13:32:47;;;;;;;10.77;7.40;;;;;;;;;;5004634;28;20428;-56
2021/01/16 13:35:17;;;;;;;12.27;7.97;;;;;;;;;;5023552;28;20451;-57
2021/01/16 13:37:43;;;;;;;11.97;7.17;;;;;;;;;;5022154;28;20505;-56
2021/01/16 13:40:20;;;;;;;12.37;8.07;;;;;;;;;;5031128;28;20428;-56
2021/01/16 13:42:47;;;;;;;10.03;7.40;;;;;;;;;;5026299;28;20505;-56
2021/01/16 13:45:16;;;;;;;13.20;8.03;;;;;;;;;;5028632;28;20507;-56
2021/01/16 13:47:42;;;;;;;10.73;7.53;;;;;;;;;;5023297;28;20412;-55
2021/01/16 13:50:11;;;;;;;9.67;6.90;;;;;;;;;;5017712;28;20421;-58
2021/01/16 13:52:51;;;;;;;10.03;7.33;;;;;;;;;;5009125;28;20425;-56
2021/01/16 13:55:17;;;;;;;12.57;7.70;;;;;;;;;;5005753;28;20432;-56
2021/01/16 13:57:44;;;;;;;9.23;7.07;;;;;;;;;;5012724;28;20424;-56
2021/01/16 14:00:14;;;;;;;11.37;7.80;;;;;;;;;;5001604;28;20919;-56
2021/01/16 14:02:42;;;;;;;9.07;6.87;;;;;;;;;;5024809;28;20513;-57
2021/01/16 14:05:11;;;;;;;12.70;6.87;;;;;;;;;;5028041;28;20416;-58
2021/01/16 14:07:37;;;;;;;10.83;7.63;;;;;;;;;;5028715;28;20479;-56
2021/01/16 14:10:03;;;;;;;9.27;6.70;;;;;;;;;;5027751;28;20496;-56
2021/01/16 14:12:29;;;;;;;10.87;7.70;;;;;;;;;;5028478;28;20454;-56
2021/01/16 14:15:04;;;;;;;9.70;7.37;;;;;;;;;;5023108;28;20916;-57
2021/01/16 14:17:36;;;;;;;9.97;6.83;;;;;;;;;;5030201;28;20507;-56
2021/01/16 14:20:05;;;;;;;9.50;7.20;;;;;;;;;;5028509;28;20496;-56
2021/01/16 14:22:51;;;;;;;9.50;7.10;;;;;;;;;;5025112;28;20412;-56
2021/01/16 14:25:25;;;;;;;8.70;6.47;;;;;;;;;;5029465;28;20425;-57
2021/01/16 14:27:51;;;;;;;9.40;6.37;;;;;;;;;;5029752;28;20818;-56
2021/01/16 14:30:21;;;;;;;8.90;6.97;;;;;;;;;;5018280;28;20432;-57
2021/01/16 14:33:01;;;;;;;9.23;6.97;;;;;;;;;;5012107;28;20595;-57
2021/01/16 14:35:28;;;;;;;8.97;6.77;;;;;;;;;;4999697;28;20890;-56
2021/01/16 14:37:58;;;;;;;9.13;6.67;;;;;;;;;;5024732;28;20420;-56
2021/01/16 14:40:34;;;;;;;9.27;6.70;;;;;;;;;;5014945;28;20782;-58
2021/01/16 14:43:02;;;;;;;8.63;6.83;;;;;;;;;;5029332;28;20459;-57
2021/01/16 14:45:28;;;;;;;8.17;6.33;;;;;;;;;;5029994;28;20460;-57